Time;durP1;ratioP1;P1;durP2;ratioP2;P2;SDS_P1;SDS_P2;PMS_P1;PMS_P2;Temp;Humidity;BMP_temperature;BMP_pressure;BME280_temperature;BME280_humidity;BME280_pressure;Samples;Min_cycle;Max_cycle;Signal;HPM_P1;HPM_P2
2023/04/27 00:01:15;;;;;;;12.43;5.82;;;4.70;99.90;;;;;;5012835;28;20029;-78
2023/04/27 00:03:41;;;;;;;10.68;5.53;;;4.60;99.90;;;;;;5007651;28;20037;-78
2023/04/27 00:06:07;;;;;;;12.48;6.05;;;4.50;99.90;;;;;;5008836;28;20040;-78
2023/04/27 00:08:32;;;;;;;7.68;5.03;;;4.50;99.90;;;;;;5025741;28;20052;-77
2023/04/27 00:10:58;;;;;;;10.18;6.00;;;4.40;99.90;;;;;;5010860;28;20416;-78
2023/04/27 00:13:24;;;;;;;11.57;5.38;;;4.40;99.90;;;;;;5026574;28;20043;-77
2023/04/27 00:15:49;;;;;;;10.07;5.05;;;4.50;99.90;;;;;;5026769;28;20075;-78
2023/04/27 00:18:15;;;;;;;9.20;4.72;;;4.60;99.90;;;;;;5010351;28;20037;-77
2023/04/27 00:20:41;;;;;;;7.47;4.00;;;4.60;99.90;;;;;;5040603;28;20047;-77
2023/04/27 00:23:07;;;;;;;6.75;3.83;;;4.70;99.90;;;;;;5022178;28;21324;-77
2023/04/27 00:25:32;;;;;;;4.72;2.95;;;4.70;99.90;;;;;;5039742;28;20029;-78
2023/04/27 00:27:58;;;;;;;10.40;5.88;;;4.70;99.90;;;;;;5024385;28;20040;-78
2023/04/27 00:30:23;;;;;;;9.00;5.35;;;4.80;99.90;;;;;;5007915;28;20036;-78
2023/04/27 00:32:49;;;;;;;7.72;5.07;;;4.60;99.90;;;;;;5006030;28;20029;-77
2023/04/27 00:35:15;;;;;;;12.98;5.68;;;4.60;99.90;;;;;;5025767;28;20037;-76
2023/04/27 00:37:40;;;;;;;8.45;5.60;;;4.60;99.90;;;;;;5025370;28;20037;-77
2023/04/27 00:40:07;;;;;;;11.10;5.85;;;4.40;99.90;;;;;;5027889;28;20519;-76
2023/04/27 00:42:33;;;;;;;6.53;3.80;;;4.10;99.90;;;;;;5008804;28;20044;-76
2023/04/27 00:44:59;;;;;;;10.35;5.95;;;4.00;99.90;;;;;;5009988;28;20033;-76
2023/04/27 00:47:25;;;;;;;8.55;4.78;;;4.20;99.90;;;;;;5042153;28;20401;-78
2023/04/27 00:49:50;;;;;;;12.30;6.38;;;4.20;99.90;;;;;;5042157;28;20086;-78
2023/04/27 00:52:16;;;;;;;11.70;6.15;;;4.20;99.90;;;;;;5011728;28;20029;-78
2023/04/27 00:54:41;;;;;;;10.50;6.47;;;3.90;99.90;;;;;;5010268;28;20064;-78
2023/04/27 00:57:07;;;;;;;12.45;6.15;;;3.80;99.90;;;;;;5025871;28;20041;-78
2023/04/27 00:59:33;;;;;;;6.32;4.15;;;3.80;99.90;;;;;;5007979;28;20392;-77
2023/04/27 01:01:59;;;;;;;11.52;4.78;;;3.90;99.90;;;;;;5025920;28;20036;-78
2023/04/27 01:04:24;;;;;;;10.55;5.55;;;4.00;99.90;;;;;;5008319;28;20036;-78
2023/04/27 01:06:50;;;;;;;8.80;5.30;;;4.10;99.90;;;;;;5025441;28;20039;-78
2023/04/27 01:09:18;;;;;;;10.40;5.63;;;4.10;99.90;;;;;;5011064;28;20401;-77
2023/04/27 01:11:44;;;;;;;10.95;5.53;;;4.00;99.90;;;;;;5007935;28;20049;-78
2023/04/27 01:14:10;;;;;;;8.75;6.30;;;3.90;99.90;;;;;;5008696;28;20400;-78
2023/04/27 01:16:36;;;;;;;11.38;6.47;;;3.80;99.90;;;;;;5040569;28;20045;-77
2023/04/27 01:19:01;;;;;;;9.07;6.07;;;3.70;99.90;;;;;;5027248;28;20035;-78
2023/04/27 01:21:27;;;;;;;13.63;6.57;;;3.50;99.90;;;;;;5025889;28;20025;-78
2023/04/27 01:23:53;;;;;;;11.98;6.90;;;3.30;99.90;;;;;;5026659;28;20138;-77
2023/04/27 01:26:18;;;;;;;15.18;6.07;;;3.30;99.90;;;;;;5008814;28;20041;-79
2023/04/27 01:28:44;;;;;;;13.02;6.50;;;3.20;99.90;;;;;;5026543;28;20029;-78
2023/04/27 01:31:10;;;;;;;10.70;6.45;;;3.20;99.90;;;;;;5027434;28;20056;-77
2023/04/27 01:33:36;;;;;;;11.80;6.88;;;3.10;99.90;;;;;;5025633;28;20445;-78
2023/04/27 01:36:02;;;;;;;12.65;7.43;;;3.10;99.90;;;;;;5026476;28;20124;-78
2023/04/27 01:38:27;;;;;;;10.38;6.18;;;3.20;99.90;;;;;;5023259;28;20155;-78
2023/04/27 01:40:54;;;;;;;11.40;6.25;;;3.20;99.90;;;;;;5007370;28;20493;-78
2023/04/27 01:43:20;;;;;;;9.80;6.45;;;3.00;99.90;;;;;;5026705;28;20036;-78
2023/04/27 01:45:47;;;;;;;13.75;6.80;;;2.90;99.90;;;;;;5025364;28;20029;-78
2023/04/27 01:48:12;;;;;;;14.80;6.35;;;3.10;99.90;;;;;;5010027;28;20072;-78
2023/04/27 01:50:38;;;;;;;10.38;6.55;;;3.00;99.90;;;;;;5005610;28;20036;-78
2023/04/27 01:53:03;;;;;;;11.77;6.55;;;3.00;99.90;;;;;;5036952;28;20451;-78
2023/04/27 01:55:30;;;;;;;12.77;7.07;;;2.90;99.90;;;;;;5008246;28;20032;-78
2023/04/27 01:57:56;;;;;;;11.95;6.90;;;2.70;99.90;;;;;;5026991;28;20033;-78
2023/04/27 02:00:21;;;;;;;15.35;7.85;;;2.70;99.90;;;;;;5011010;28;20479;-78
2023/04/27 02:02:49;;;;;;;16.20;6.85;;;2.80;99.90;;;;;;5039445;28;20112;-78
2023/04/27 02:05:15;;;;;;;17.23;7.82;;;2.60;99.90;;;;;;5024977;28;20090;-77
2023/04/27 02:07:41;;;;;;;10.95;7.38;;;2.60;99.90;;;;;;5025626;28;20037;-78
2023/04/27 02:10:07;;;;;;;8.32;4.85;;;2.60;99.90;;;;;;5004491;28;20128;-78
2023/04/27 02:12:32;;;;;;;10.65;6.28;;;2.80;99.90;;;;;;5008095;28;20040;-78
2023/04/27 02:14:58;;;;;;;13.55;6.82;;;2.80;99.90;;;;;;5041709;28;20028;-78
2023/04/27 02:17:23;;;;;;;14.75;6.45;;;2.80;99.90;;;;;;5007814;28;20044;-78
2023/04/27 02:19:50;;;;;;;11.45;6.38;;;2.80;99.90;;;;;;5023496;28;20123;-78
2023/04/27 02:22:16;;;;;;;16.00;7.38;;;2.70;99.90;;;;;;5007564;28;20096;-78
2023/04/27 02:24:41;;;;;;;11.93;6.93;;;2.60;99.90;;;;;;5006779;28;20183;-78
2023/04/27 02:27:07;;;;;;;14.35;7.68;;;2.50;99.90;;;;;;5010026;28;20037;-78
2023/04/27 02:29:32;;;;;;;14.68;8.18;;;2.50;99.90;;;;;;5009086;28;20040;-78
2023/04/27 02:31:58;;;;;;;13.93;8.00;;;2.50;99.90;;;;;;5004711;28;20029;-77
2023/04/27 02:34:24;;;;;;;12.25;6.93;;;2.30;99.90;;;;;;5009061;28;20029;-78
2023/04/27 02:36:49;;;;;;;13.73;8.32;;;2.20;99.90;;;;;;5025074;28;20043;-78
2023/04/27 02:39:15;;;;;;;14.88;6.78;;;2.10;99.90;;;;;;5007970;28;20049;-78
2023/04/27 02:41:40;;;;;;;19.27;7.88;;;2.00;99.90;;;;;;5023804;28;20113;-78
2023/04/27 02:44:06;;;;;;;15.35;8.38;;;2.00;99.90;;;;;;5019866;28;20108;-78
2023/04/27 02:46:31;;;;;;;18.20;9.05;;;2.10;99.90;;;;;;5006963;28;20033;-78
2023/04/27 02:48:57;;;;;;;18.75;8.10;;;2.10;99.90;;;;;;5037859;28;20036;-78
2023/04/27 02:51:22;;;;;;;14.93;8.07;;;2.20;99.90;;;;;;5040944;28;20020;-78
2023/04/27 02:53:48;;;;;;;15.10;8.32;;;2.20;99.90;;;;;;5004337;28;20140;-78
2023/04/27 02:56:14;;;;;;;15.73;8.90;;;2.10;99.90;;;;;;5022648;28;20401;-78
2023/04/27 02:58:40;;;;;;;16.02;8.52;;;2.10;99.90;;;;;;5039224;28;20037;-77
2023/04/27 03:01:05;;;;;;;13.18;8.13;;;2.10;99.90;;;;;;5027560;28;20087;-78
2023/04/27 03:03:31;;;;;;;22.48;7.78;;;1.90;99.90;;;;;;5023792;28;20025;-77
2023/04/27 03:05:56;;;;;;;13.48;7.93;;;1.80;99.90;;;;;;5021760;28;20477;-78
2023/04/27 03:08:22;;;;;;;14.90;8.23;;;1.80;99.90;;;;;;5021765;28;20488;-77
2023/04/27 03:10:47;;;;;;;13.05;6.93;;;1.90;99.90;;;;;;5024371;28;20637;-78
2023/04/27 03:13:14;;;;;;;18.33;8.63;;;2.00;99.90;;;;;;5008077;28;20075;-78
2023/04/27 03:15:39;;;;;;;13.48;7.50;;;2.00;99.90;;;;;;5023365;28;20130;-78
2023/04/27 03:18:05;;;;;;;16.00;8.43;;;1.90;99.90;;;;;;5036823;28;20496;-78
2023/04/27 03:20:31;;;;;;;11.77;7.32;;;1.90;99.90;;;;;;5023249;28;20167;-78
2023/04/27 03:22:56;;;;;;;14.38;7.75;;;1.90;99.90;;;;;;5005898;28;20033;-78
2023/04/27 03:25:22;;;;;;;15.27;7.63;;;1.80;99.90;;;;;;5024876;28;20447;-79
2023/04/27 03:27:47;;;;;;;12.25;7.45;;;1.80;99.90;;;;;;5005808;28;20061;-78
2023/04/27 03:30:13;;;;;;;16.00;7.20;;;1.70;99.90;;;;;;5008157;28;20032;-78
2023/04/27 03:32:39;;;;;;;15.90;7.80;;;1.60;99.90;;;;;;5023366;28;20424;-77
2023/04/27 03:35:05;;;;;;;14.68;7.70;;;1.50;99.90;;;;;;5023741;28;20539;-79
2023/04/27 03:37:31;;;;;;;16.30;8.30;;;1.50;99.90;;;;;;5005420;28;20500;-78
2023/04/27 03:39:57;;;;;;;18.00;8.25;;;1.50;99.90;;;;;;5007145;28;20128;-78
2023/04/27 03:42:22;;;;;;;16.02;7.93;;;1.50;99.90;;;;;;5005097;28;20388;-78
2023/04/27 03:44:48;;;;;;;13.85;7.80;;;1.30;99.90;;;;;;5023231;28;20540;-78
2023/04/27 03:47:13;;;;;;;17.25;8.75;;;1.30;99.90;;;;;;5007239;28;20365;-78
2023/04/27 03:49:39;;;;;;;18.83;7.65;;;1.30;99.90;;;;;;5023930;28;20485;-78
2023/04/27 03:52:05;;;;;;;18.13;8.40;;;1.20;99.90;;;;;;5040656;28;20450;-78
2023/04/27 03:54:30;;;;;;;21.67;8.88;;;1.30;99.90;;;;;;5023209;28;20438;-78
2023/04/27 03:56:56;;;;;;;13.45;8.50;;;1.30;99.90;;;;;;5024196;28;20036;-78
2023/04/27 03:59:21;;;;;;;15.52;8.98;;;1.30;99.90;;;;;;5024703;28;20037;-78
2023/04/27 04:01:47;;;;;;;16.42;8.13;;;1.30;99.90;;;;;;5009330;28;20037;-78
2023/04/27 04:04:13;;;;;;;14.35;7.72;;;1.30;99.90;;;;;;5009261;28;20025;-78
2023/04/27 04:06:38;;;;;;;16.80;8.73;;;1.30;99.90;;;;;;5044118;28;20471;-78
2023/04/27 04:09:04;;;;;;;14.55;7.70;;;1.20;99.90;;;;;;5025273;28;20029;-78
2023/04/27 04:11:29;;;;;;;13.45;7.95;;;1.10;99.90;;;;;;5024309;28;20091;-78
2023/04/27 04:13:55;;;;;;;13.75;8.43;;;1.10;99.90;;;;;;5026767;28;20029;-78
2023/04/27 04:16:20;;;;;;;14.75;7.88;;;1.00;99.90;;;;;;5026160;28;20040;-78
2023/04/27 04:18:46;;;;;;;23.92;9.93;;;1.00;99.90;;;;;;5025004;28;20039;-79
2023/04/27 04:21:11;;;;;;;16.33;9.80;;;1.10;99.90;;;;;;5038365;28;20033;-79
2023/04/27 04:23:37;;;;;;;15.95;9.10;;;1.10;99.90;;;;;;5026259;28;20044;-78
2023/04/27 04:26:03;;;;;;;16.17;9.70;;;1.10;99.90;;;;;;5027265;28;20037;-78
2023/04/27 04:28:29;;;;;;;18.40;10.13;;;1.10;99.90;;;;;;5040347;28;20890;-78
2023/04/27 04:30:55;;;;;;;17.13;9.07;;;1.10;99.90;;;;;;5043542;28;20495;-78
2023/04/27 04:33:21;;;;;;;14.13;8.73;;;1.20;99.90;;;;;;5011925;28;20025;-78
2023/04/27 04:35:46;;;;;;;19.13;8.45;;;1.30;99.90;;;;;;5006663;28;20071;-78
2023/04/27 04:38:12;;;;;;;15.18;7.82;;;1.40;99.90;;;;;;5026273;28;20391;-78
2023/04/27 04:40:38;;;;;;;9.73;6.13;;;1.60;99.90;;;;;;5026566;28;20036;-78
2023/04/27 04:43:03;;;;;;;14.95;7.82;;;1.60;99.90;;;;;;5026809;28;20152;-78
2023/04/27 04:45:29;;;;;;;18.52;8.95;;;1.70;99.90;;;;;;5023703;28;20029;-78
2023/04/27 04:47:55;;;;;;;15.75;9.15;;;1.50;99.90;;;;;;5002562;28;20075;-77
2023/04/27 04:50:21;;;;;;;16.92;8.52;;;1.50;99.90;;;;;;5025539;28;20033;-77
2023/04/27 04:52:46;;;;;;;19.50;10.00;;;1.40;99.90;;;;;;5026245;28;20037;-78
2023/04/27 04:55:12;;;;;;;17.42;9.13;;;1.40;99.90;;;;;;5025793;28;20417;-78
2023/04/27 04:57:37;;;;;;;18.92;10.32;;;1.50;99.90;;;;;;5024676;28;20542;-76
2023/04/27 05:00:05;;;;;;;19.20;10.15;;;1.60;99.90;;;;;;5036359;28;20071;-77
2023/04/27 05:02:31;;;;;;;23.48;11.40;;;1.60;99.90;;;;;;5026449;28;20052;-78
2023/04/27 05:04:57;;;;;;;24.38;12.43;;;1.80;99.90;;;;;;5009582;28;20068;-78
2023/04/27 05:07:22;;;;;;;34.33;13.00;;;1.90;99.90;;;;;;5026429;28;20029;-78
2023/04/27 05:09:48;;;;;;;29.48;13.73;;;2.00;99.90;;;;;;5023969;28;20029;-78
2023/04/27 05:12:13;;;;;;;25.63;12.80;;;2.20;99.90;;;;;;5025740;28;20389;-78
2023/04/27 05:14:39;;;;;;;30.90;13.82;;;2.30;99.90;;;;;;5039543;28;20646;-78
2023/04/27 05:17:04;;;;;;;32.55;13.02;;;2.30;99.90;;;;;;5024444;28;20025;-78
2023/04/27 05:19:30;;;;;;;33.60;14.43;;;2.40;99.90;;;;;;5025705;28;20033;-78
2023/04/27 05:21:59;;;;;;;34.72;14.52;;;2.50;99.90;;;;;;5025512;28;20033;-78
2023/04/27 05:24:25;;;;;;;32.85;15.60;;;2.60;99.90;;;;;;5042874;28;20053;-78
2023/04/27 05:26:51;;;;;;;31.65;15.68;;;2.70;99.90;;;;;;5023504;28;20033;-78
2023/04/27 05:29:16;;;;;;;37.90;16.15;;;2.90;99.90;;;;;;5022304;28;20013;-78
2023/04/27 05:31:42;;;;;;;36.47;15.52;;;3.00;99.90;;;;;;5008558;28;20033;-78
2023/04/27 05:34:08;;;;;;;33.05;15.93;;;3.10;99.90;;;;;;5026866;28;20032;-76
2023/04/27 05:36:34;;;;;;;30.73;15.20;;;3.30;99.90;;;;;;5040525;28;20033;-77
2023/04/27 05:39:00;;;;;;;34.75;16.92;;;3.30;99.90;;;;;;5023661;28;20072;-77
2023/04/27 05:41:26;;;;;;;41.50;17.77;;;3.40;99.90;;;;;;5040195;28;20040;-77
2023/04/27 05:43:52;;;;;;;40.17;16.23;;;3.50;99.90;;;;;;5025025;28;20025;-77
2023/04/27 05:46:19;;;;;;;38.40;16.17;;;3.70;99.90;;;;;;5026334;28;20029;-76
2023/04/27 05:48:45;;;;;;;42.75;16.65;;;3.80;99.90;;;;;;5040303;28;20099;-78
2023/04/27 05:51:10;;;;;;;39.10;16.42;;;3.90;99.90;;;;;;5040115;28;20017;-76
2023/04/27 05:53:36;;;;;;;37.50;16.17;;;4.00;99.90;;;;;;5024442;28;20074;-77
2023/04/27 05:56:03;;;;;;;38.28;14.93;;;4.20;99.90;;;;;;5037116;28;20660;-77
2023/04/27 05:58:29;;;;;;;34.13;16.67;;;4.30;99.90;;;;;;5006712;28;20057;-76
2023/04/27 06:00:55;;;;;;;32.45;15.27;;;4.40;99.90;;;;;;5038579;28;20049;-76
2023/04/27 06:03:21;;;;;;;31.33;14.82;;;4.50;99.90;;;;;;5010632;28;20025;-76
2023/04/27 06:05:46;;;;;;;30.65;14.13;;;4.70;99.90;;;;;;5039601;28;20030;-76
2023/04/27 06:08:12;;;;;;;33.97;15.32;;;4.90;99.90;;;;;;5025772;28;20045;-77
2023/04/27 06:10:38;;;;;;;25.60;13.75;;;5.00;99.90;;;;;;5022125;28;20419;-76
2023/04/27 06:13:03;;;;;;;31.70;14.23;;;5.20;99.90;;;;;;5037801;28;20442;-76
2023/04/27 06:15:29;;;;;;;29.55;15.27;;;5.30;99.90;;;;;;5005178;28;20624;-76
2023/04/27 06:17:55;;;;;;;23.30;12.73;;;5.40;99.90;;;;;;5009464;28;20493;-76
2023/04/27 06:20:21;;;;;;;30.13;12.85;;;5.60;99.90;;;;;;5025951;28;20049;-77
2023/04/27 06:22:46;;;;;;;24.67;11.55;;;5.70;99.90;;;;;;5040282;28;20021;-76
2023/04/27 06:25:12;;;;;;;19.40;11.30;;;5.80;99.90;;;;;;5041150;28;20021;-77
2023/04/27 06:27:37;;;;;;;18.98;9.85;;;5.90;99.90;;;;;;5020501;28;20021;-77
2023/04/27 06:30:04;;;;;;;21.35;8.50;;;6.10;99.90;;;;;;5021406;28;20075;-76
2023/04/27 06:32:29;;;;;;;17.90;7.53;;;6.20;99.90;;;;;;5022719;28;20111;-78
2023/04/27 06:34:55;;;;;;;11.75;6.70;;;6.40;99.90;;;;;;5024295;28;20175;-76
2023/04/27 06:37:21;;;;;;;14.43;7.05;;;6.50;99.90;;;;;;5025082;28;20040;-78
2023/04/27 06:39:46;;;;;;;9.55;5.60;;;6.70;99.90;;;;;;5022085;28;20511;-77
2023/04/27 06:42:12;;;;;;;15.50;7.55;;;6.80;99.90;;;;;;5039427;28;20366;-77
2023/04/27 06:44:38;;;;;;;13.00;6.15;;;6.90;99.90;;;;;;5003378;28;20064;-78
2023/04/27 06:47:03;;;;;;;11.00;5.45;;;7.10;99.90;;;;;;5042048;28;20025;-78
2023/04/27 06:49:29;;;;;;;11.35;6.00;;;7.30;99.90;;;;;;5006136;28;20052;-77
2023/04/27 06:51:55;;;;;;;13.77;5.50;;;7.40;99.90;;;;;;5024727;28;20082;-79
2023/04/27 06:54:20;;;;;;;6.93;4.18;;;7.50;99.90;;;;;;5009012;28;20052;-77
2023/04/27 06:56:46;;;;;;;9.50;4.15;;;7.60;99.90;;;;;;5035108;28;20064;-77
2023/04/27 06:59:12;;;;;;;7.55;4.10;;;7.80;99.90;;;;;;5038869;28;20116;-77
2023/04/27 07:01:37;;;;;;;8.38;4.45;;;8.00;99.90;;;;;;5022741;28;20029;-77
2023/04/27 07:04:03;;;;;;;8.63;3.58;;;8.10;99.90;;;;;;5040096;28;20202;-77
2023/04/27 07:06:29;;;;;;;8.30;3.70;;;8.30;99.90;;;;;;5007574;28;20048;-77
2023/04/27 07:08:54;;;;;;;9.50;3.90;;;8.30;99.90;;;;;;5037594;28;20033;-78
2023/04/27 07:11:20;;;;;;;9.05;3.83;;;8.50;99.90;;;;;;5042120;28;20511;-77
2023/04/27 07:13:46;;;;;;;14.43;4.18;;;8.60;99.90;;;;;;5037658;28;20051;-78
2023/04/27 07:16:11;;;;;;;7.38;3.35;;;8.80;99.90;;;;;;5006445;28;20029;-78
2023/04/27 07:18:37;;;;;;;4.43;3.40;;;8.90;99.90;;;;;;5023395;28;20132;-77
2023/04/27 07:21:02;;;;;;;7.63;3.70;;;9.10;99.90;;;;;;5020896;28;20053;-78
2023/04/27 07:23:28;;;;;;;7.95;3.40;;;9.20;99.90;;;;;;5005489;28;20029;-79
2023/04/27 07:25:54;;;;;;;7.57;3.03;;;9.30;99.90;;;;;;5021916;28;20516;-78
2023/04/27 07:28:19;;;;;;;6.13;2.85;;;9.40;99.90;;;;;;5003201;28;20032;-77
2023/04/27 07:30:45;;;;;;;10.68;3.97;;;9.60;99.90;;;;;;5020726;28;20029;-78
2023/04/27 07:33:10;;;;;;;7.28;3.08;;;9.70;99.90;;;;;;5020535;28;20044;-78
2023/04/27 07:35:36;;;;;;;6.50;3.58;;;9.90;99.90;;;;;;5002245;28;20519;-77
2023/04/27 07:38:02;;;;;;;8.68;3.38;;;10.00;99.90;;;;;;5011263;28;20548;-79
2023/04/27 07:40:28;;;;;;;7.80;3.60;;;10.10;99.90;;;;;;5027910;28;20167;-76
2023/04/27 07:42:54;;;;;;;10.10;4.32;;;10.20;99.90;;;;;;5044123;28;20536;-76
2023/04/27 07:45:20;;;;;;;11.98;4.38;;;10.30;99.90;;;;;;5011589;28;20120;-76
2023/04/27 07:47:46;;;;;;;6.95;4.13;;;10.50;99.90;;;;;;5025070;28;20065;-76
2023/04/27 07:50:15;;;;;;;7.97;3.95;;;10.50;99.90;;;;;;5023927;28;20060;-76
2023/04/27 07:52:41;;;;;;;8.85;5.65;;;10.70;99.90;;;;;;5025964;28;20063;-76
2023/04/27 07:55:07;;;;;;;7.93;4.43;;;10.80;99.90;;;;;;5043390;28;20317;-76
2023/04/27 07:57:32;;;;;;;12.30;4.72;;;10.90;99.90;;;;;;5028211;28;20100;-78
2023/04/27 07:59:58;;;;;;;9.65;4.45;;;11.00;99.90;;;;;;5006401;28;20017;-75
2023/04/27 08:02:25;;;;;;;8.63;4.80;;;11.00;99.90;;;;;;5028984;28;20029;-76
2023/04/27 08:04:51;;;;;;;7.20;3.88;;;11.10;99.90;;;;;;5022707;28;20041;-78
2023/04/27 08:07:17;;;;;;;9.75;3.95;;;11.30;99.90;;;;;;5025188;28;20025;-78
2023/04/27 08:09:42;;;;;;;11.75;4.13;;;11.40;99.90;;;;;;5037632;28;20026;-78
2023/04/27 08:12:08;;;;;;;6.63;3.80;;;11.60;99.90;;;;;;5037458;28;20033;-78
2023/04/27 08:14:34;;;;;;;17.13;5.55;;;11.70;99.90;;;;;;5027062;28;20033;-78
2023/04/27 08:17:00;;;;;;;9.20;3.65;;;11.70;99.90;;;;;;5012088;28;20032;-78
2023/04/27 08:19:25;;;;;;;7.35;3.90;;;11.90;99.90;;;;;;5007681;28;20021;-79
2023/04/27 08:21:51;;;;;;;7.40;3.60;;;12.10;99.90;;;;;;5025893;28;20017;-78
2023/04/27 08:24:17;;;;;;;5.90;3.00;;;12.20;99.90;;;;;;5011042;28;20036;-77
2023/04/27 08:26:42;;;;;;;9.88;3.75;;;12.30;99.90;;;;;;5025245;28;20025;-78
2023/04/27 08:29:08;;;;;;;9.20;3.05;;;12.40;99.90;;;;;;5025272;28;20393;-78
2023/04/27 08:31:33;;;;;;;4.03;3.25;;;12.40;99.90;;;;;;5024664;28;20025;-78
2023/04/27 08:33:59;;;;;;;6.22;3.35;;;12.60;99.90;;;;;;5025743;28;20029;-78
2023/04/27 08:36:26;;;;;;;4.28;2.92;;;12.60;99.90;;;;;;5011165;28;20427;-79
2023/04/27 08:38:52;;;;;;;5.82;3.45;;;12.90;99.90;;;;;;5009956;28;20172;-76
2023/04/27 08:41:22;;;;;;;8.35;3.40;;;13.10;99.90;;;;;;5042854;28;20116;-76
2023/04/27 08:43:48;;;;;;;4.57;2.92;;;13.10;99.90;;;;;;5011014;28;20489;-76
2023/04/27 08:46:20;;;;;;;5.38;2.97;;;13.20;99.90;;;;;;5011133;28;20120;-76
2023/04/27 08:48:49;;;;;;;4.60;2.97;;;13.60;99.90;;;;;;5041975;28;20546;-76
2023/04/27 08:51:15;;;;;;;3.05;1.85;;;13.60;99.90;;;;;;5008154;28;20048;-76
2023/04/27 08:53:51;;;;;;;3.53;2.45;;;13.90;99.90;;;;;;5038592;28;20400;-76
2023/04/27 08:56:18;;;;;;;4.97;2.88;;;13.80;99.90;;;;;;5020108;28;20094;-78
2023/04/27 08:58:43;;;;;;;5.63;2.30;;;13.90;99.90;;;;;;5006598;28;20032;-76
2023/04/27 09:01:09;;;;;;;8.20;3.10;;;14.10;99.90;;;;;;5024701;28;20492;-76
2023/04/27 09:03:35;;;;;;;5.05;3.30;;;14.30;99.90;;;;;;5024434;28;20041;-76
2023/04/27 09:06:02;;;;;;;6.50;3.33;;;14.40;99.90;;;;;;5022110;28;20056;-77
2023/04/27 09:08:39;;;;;;;7.03;2.78;;;14.40;99.90;;;;;;5007233;28;20476;-76
2023/04/27 09:11:05;;;;;;;8.00;3.15;;;14.50;99.90;;;;;;5023551;28;20033;-78
2023/04/27 09:13:37;;;;;;;5.38;2.67;;;14.70;99.90;;;;;;5024567;28;20024;-76
2023/04/27 09:16:03;;;;;;;6.30;3.00;;;14.90;99.90;;;;;;5007283;28;20075;-76
2023/04/27 09:18:32;;;;;;;7.22;3.35;;;15.00;99.90;;;;;;5025203;28;20029;-76
2023/04/27 09:20:58;;;;;;;6.53;3.00;;;15.20;99.90;;;;;;5009483;28;20065;-75
2023/04/27 09:23:37;;;;;;;4.95;2.40;;;15.40;99.90;;;;;;5010070;28;20060;-79
2023/04/27 09:26:10;;;;;;;3.63;1.58;;;15.40;99.80;;;;;;5026315;28;20057;-76
2023/04/27 09:28:38;;;;;;;4.28;1.70;;;15.50;97.80;;;;;;5004657;28;20056;-78
2023/04/27 09:31:04;;;;;;;5.30;2.78;;;15.90;94.60;;;;;;5025529;28;20037;-76
2023/04/27 09:33:33;;;;;;;7.65;2.65;;;16.00;97.50;;;;;;5043673;28;20029;-78
2023/04/27 09:36:04;;;;;;;7.18;2.72;;;16.10;96.90;;;;;;5041414;28;20056;-77
2023/04/27 09:38:30;;;;;;;5.55;2.28;;;16.10;94.20;;;;;;5026895;28;20396;-76
2023/04/27 09:40:55;;;;;;;4.53;1.85;;;16.10;94.60;;;;;;5023671;28;20029;-76
2023/04/27 09:43:22;;;;;;;7.03;2.40;;;16.30;95.30;;;;;;5007747;28;20031;-76
2023/04/27 09:45:48;;;;;;;4.55;2.83;;;16.30;93.40;;;;;;5023646;28;20057;-76
2023/04/27 09:48:14;;;;;;;4.95;2.28;;;16.50;95.60;;;;;;5024051;28;20703;-76
2023/04/27 09:50:41;;;;;;;6.97;2.35;;;16.60;93.80;;;;;;5004254;28;20148;-79
2023/04/27 09:53:10;;;;;;;3.92;2.47;;;16.70;95.70;;;;;;5024088;28;20673;-75
2023/04/27 09:55:41;;;;;;;7.18;3.28;;;16.70;95.40;;;;;;5005590;28;20048;-76
2023/04/27 09:58:39;;;;;;;10.02;3.90;;;16.80;95.60;;;;;;5041927;28;20079;-76
2023/04/27 10:01:16;;;;;;;4.35;3.33;;;17.00;93.90;;;;;;5038359;28;20743;-78
2023/04/27 10:03:50;;;;;;;3.42;2.95;;;17.10;92.80;;;;;;5041896;28;20040;-76
2023/04/27 10:06:46;;;;;;;7.95;3.85;;;17.20;91.90;;;;;;5041374;28;20044;-76
2023/04/27 10:09:13;;;;;;;11.27;3.58;;;17.30;92.20;;;;;;4980630;28;20059;-75
2023/04/27 10:11:40;;;;;;;4.32;2.72;;;17.40;91.10;;;;;;5041607;28;20093;-76
2023/04/27 10:14:07;;;;;;;6.15;3.15;;;17.40;92.80;;;;;;5023259;28;20040;-78
2023/04/27 10:16:42;;;;;;;4.63;3.28;;;17.60;91.90;;;;;;5008295;28;20055;-75
2023/04/27 10:19:08;;;;;;;6.65;3.80;;;17.70;90.50;;;;;;5024366;28;20045;-75
2023/04/27 10:21:34;;;;;;;7.30;3.60;;;17.70;88.30;;;;;;5021513;28;20041;-76
2023/04/27 10:24:08;;;;;;;6.05;3.10;;;17.80;87.40;;;;;;5024605;28;20090;-75
2023/04/27 10:26:34;;;;;;;5.90;2.92;;;17.90;88.00;;;;;;5038028;28;20048;-76
2023/04/27 10:29:06;;;;;;;6.35;2.97;;;18.00;90.40;;;;;;5024879;28;20056;-76
2023/04/27 10:31:32;;;;;;;7.47;3.55;;;18.00;90.20;;;;;;5024290;28;20059;-78
2023/04/27 10:34:07;;;;;;;8.15;4.38;;;18.10;89.00;;;;;;5024217;28;20068;-76
2023/04/27 10:36:37;;;;;;;4.90;2.77;;;18.30;83.10;;;;;;5042615;28;20128;-76
2023/04/27 10:39:12;;;;;;;7.30;3.40;;;18.30;87.60;;;;;;5040542;28;20032;-76
2023/04/27 10:41:37;;;;;;;5.18;3.33;;;18.50;87.50;;;;;;5023597;28;20045;-76
2023/04/27 10:44:15;;;;;;;7.90;3.60;;;18.60;86.60;;;;;;5035970;28;20037;-77
2023/04/27 10:46:54;;;;;;;6.88;3.63;;;18.60;81.90;;;;;;5022829;28;20496;-76
2023/04/27 10:49:22;;;;;;;5.07;3.63;;;18.50;81.80;;;;;;5020322;28;20500;-77
2023/04/27 10:51:49;;;;;;;6.60;3.78;;;18.50;80.50;;;;;;5024762;28;20037;-77
2023/04/27 10:54:14;;;;;;;10.77;3.50;;;18.50;78.60;;;;;;5037313;28;20040;-76
2023/04/27 10:56:40;;;;;;;4.53;2.78;;;18.50;81.50;;;;;;5021799;28;20492;-76
2023/04/27 10:59:07;;;;;;;4.03;3.20;;;18.60;80.40;;;;;;5037174;28;20140;-76
2023/04/27 11:01:32;;;;;;;8.27;3.38;;;18.70;83.10;;;;;;5005678;28;20064;-77
2023/04/27 11:03:58;;;;;;;6.53;4.38;;;18.80;82.20;;;;;;5041016;28;20067;-77
2023/04/27 11:06:24;;;;;;;5.65;3.22;;;18.80;80.50;;;;;;5009140;28;20067;-76
2023/04/27 11:08:50;;;;;;;4.40;3.08;;;18.80;81.90;;;;;;5024054;28;20037;-76
2023/04/27 11:11:16;;;;;;;7.70;4.25;;;19.00;82.40;;;;;;5023264;28;20037;-77
2023/04/27 11:13:42;;;;;;;6.63;3.78;;;19.00;75.70;;;;;;5009537;28;20034;-77
2023/04/27 11:16:08;;;;;;;7.38;3.72;;;19.10;75.40;;;;;;5024491;28;20032;-76
2023/04/27 11:18:36;;;;;;;5.55;3.00;;;19.10;79.60;;;;;;5028853;28;20083;-77
2023/04/27 11:21:14;;;;;;;9.27;3.42;;;19.30;79.70;;;;;;5040166;28;20029;-77
2023/04/27 11:23:41;;;;;;;5.85;3.08;;;19.50;78.10;;;;;;5039809;28;20052;-76
2023/04/27 11:26:16;;;;;;;4.25;3.13;;;19.70;78.50;;;;;;5008600;28;20029;-76
2023/04/27 11:29:00;;;;;;;8.05;4.57;;;19.80;79.10;;;;;;5025061;28;20042;-76
2023/04/27 11:31:26;;;;;;;3.60;3.03;;;20.00;77.30;;;;;;5025447;28;20057;-76
2023/04/27 11:33:53;;;;;;;3.25;2.60;;;20.10;76.60;;;;;;5026792;28;20507;-76
2023/04/27 11:36:19;;;;;;;8.07;4.60;;;21.20;71.00;;;;;;5028236;28;20534;-76
2023/04/27 11:38:45;;;;;;;5.82;3.58;;;20.80;72.00;;;;;;5027406;28;20492;-77
2023/04/27 11:41:11;;;;;;;7.65;3.97;;;20.60;67.70;;;;;;5040647;28;20041;-76
2023/04/27 11:43:40;;;;;;;8.82;4.13;;;20.50;73.70;;;;;;5041739;28;20033;-77
2023/04/27 11:46:09;;;;;;;6.90;3.63;;;20.50;72.40;;;;;;5038945;28;20546;-76
2023/04/27 11:48:36;;;;;;;8.30;4.13;;;20.60;75.80;;;;;;5021461;28;20045;-76
2023/04/27 11:51:02;;;;;;;6.63;4.47;;;20.60;70.30;;;;;;5011402;28;20032;-76
2023/04/27 11:53:31;;;;;;;7.65;4.25;;;20.70;69.70;;;;;;5027982;28;20063;-76
2023/04/27 11:56:04;;;;;;;7.88;3.25;;;20.70;71.50;;;;;;5028538;28;20059;-76
2023/04/27 11:58:34;;;;;;;6.72;4.88;;;21.00;73.00;;;;;;5022313;28;20142;-76
2023/04/27 12:01:00;;;;;;;4.47;2.95;;;21.00;64.70;;;;;;5039580;28;20037;-77
2023/04/27 12:03:27;;;;;;;4.50;2.88;;;21.00;70.20;;;;;;5027235;28;20037;-76
2023/04/27 12:05:53;;;;;;;3.60;2.72;;;21.20;71.60;;;;;;5025692;28;20044;-76
2023/04/27 12:08:19;;;;;;;8.77;3.75;;;21.30;70.40;;;;;;5012229;28;21029;-75
2023/04/27 12:10:44;;;;;;;5.53;3.95;;;21.10;67.00;;;;;;5024727;28;20478;-77
2023/04/27 12:13:11;;;;;;;7.07;4.20;;;21.00;60.70;;;;;;5042338;28;20203;-78
2023/04/27 12:15:37;;;;;;;4.88;2.95;;;20.90;65.60;;;;;;5026320;28;20102;-77
2023/04/27 12:18:02;;;;;;;7.30;4.53;;;20.90;68.70;;;;;;5039832;28;20061;-77
2023/04/27 12:20:28;;;;;;;3.92;3.47;;;21.10;59.70;;;;;;5010755;28;20142;-78
2023/04/27 12:22:55;;;;;;;7.07;3.70;;;21.10;62.60;;;;;;5019656;28;20095;-77
2023/04/27 12:25:20;;;;;;;6.80;3.13;;;21.10;61.50;;;;;;5038916;28;20665;-78
2023/04/27 12:27:47;;;;;;;6.10;3.40;;;21.00;62.60;;;;;;5027317;28;20032;-78
2023/04/27 12:30:13;;;;;;;6.93;3.42;;;21.50;65.60;;;;;;5028695;28;20033;-77
2023/04/27 12:32:39;;;;;;;4.47;3.55;;;21.30;62.80;;;;;;5006282;28;20364;-78
2023/04/27 12:35:06;;;;;;;4.90;3.03;;;21.20;59.20;;;;;;5037879;28;20780;-78
2023/04/27 12:37:31;;;;;;;6.28;3.78;;;21.10;61.50;;;;;;5025032;28;20628;-76
2023/04/27 12:39:57;;;;;;;4.32;1.92;;;21.20;59.90;;;;;;5010374;28;20030;-76
2023/04/27 12:42:23;;;;;;;9.40;4.13;;;21.50;67.10;;;;;;5010349;28;20041;-77